Flight Track Log - Related Links

Times and Time Zones

All times are in EDT time to prevent confusion due to time zone crossing. See the ASQ4252 flight status page for this flight to view local times or setup timezone preferences in your user account.

Time Position Orientation Groundspeed Altitude Reporting Facility
EDT Latitude Longitude Course Direction KTS MPH feet Rate Location/Type
Sat 07:35:16 PM 40.8067 -111.9794 146° Southeast 167 192 5,000  Level Salt Lake Center
Sat 07:36:17 PM 40.8617 -111.9861 355° North 216 249 6,700 1,855 Climbing Salt Lake Center
Sat 07:37:06 PM 40.9189 -111.9922 355° North 250 288 8,400 2,066 Climbing Salt Lake Center
Sat 07:38:00 PM 41.1333 -111.8599 90° East  Level FlightAware Approximate
Sat 07:38:19 PM 41.0042 -112.0019 355° North 271 312 10,900  Level Salt Lake Center
Sat 07:39:00 PM 41.0877 -111.7522 159° South  Level FlightAware Approximate
Sat 07:39:21 PM 41.0372 -111.9144 63° Northeast 299 344 12,700  Level Salt Lake Center
Sat 07:40:00 PM 40.9993 -111.6743 146° Southeast  Level FlightAware Approximate
Sat 07:40:22 PM 40.9925 -111.8019 118° Southeast 310 357 14,500  Level Salt Lake Center
Sat 07:41:24 PM 40.9692 -111.6756 104° East 360 414 15,100 878 Climbing Salt Lake Center
Sat 07:42:25 PM 40.9569 -111.5319 96° East 395 455 16,300 1,317 Climbing Salt Lake Center
Sat 07:43:27 PM 40.9450 -111.3858 96° East 401 461 17,800 1,403 Climbing Salt Lake Center
Sat 07:44:29 PM 40.9311 -111.2381 97° East 406 467 19,200 1,415 Climbing Salt Lake Center
Sat 07:45:30 PM 40.9169 -111.0872 97° East 412 474 20,700 1,610 Climbing Salt Lake Center
Sat 07:46:32 PM 40.9017 -110.9019 96° East 421 484 22,500 1,610 Climbing Salt Lake Center
Sat 07:47:33 PM 40.8878 -110.7481 97° East 423 487 24,000 1,415 Climbing Salt Lake Center
Sat 07:48:35 PM 40.8733 -110.5922 97° East 427 491 25,400 1,366 Climbing Salt Lake Center
Sat 07:49:36 PM 40.8600 -110.4469 97° East 426 490 26,800 1,512 Climbing Salt Lake Center
Sat 07:50:38 PM 40.8436 -110.2758 97° East 423 487 28,500 1,512 Climbing Salt Lake Center
Sat 07:51:39 PM 40.8292 -110.1256 97° East 423 487 29,900 1,463 Climbing Salt Lake Center
Sat 07:52:41 PM 40.8117 -109.9539 98° East 423 487 31,500 1,258 Climbing Salt Lake Center
Sat 07:53:43 PM 40.7967 -109.8050 98° East 426 490 32,500 927 Climbing Salt Lake Center
Sat 07:54:44 PM 40.7819 -109.6525 97° East 435 501 33,400 976 Climbing Salt Lake Center
Sat 07:55:46 PM 40.7639 -109.4719 97° East 442 509 34,500 780 Climbing Salt Lake Center
Sat 07:56:47 PM 40.7478 -109.3194 98° East 439 505 35,000 246 Climbing Salt Lake Center
Sat 07:57:48 PM 40.7292 -109.1406 98° East 461 531 35,000  Level Salt Lake Center
Sat 07:58:37 PM 40.7175 -108.9856 96° East 484 557 35,000  Level Denver Center
Sat 07:59:39 PM 40.7047 -108.8425 97° East 490 564 35,000  Level Denver Center
Sat 08:00:41 PM 40.6875 -108.6408 96° East 495 570 35,000  Level Denver Center
Sat 08:01:43 PM 40.6689 -108.4389 97° East 495 570 35,000  Level Denver Center
Sat 08:02:45 PM 40.6533 -108.2656 97° East 496 571 35,000  Level Denver Center
Sat 08:03:46 PM 40.6353 -108.0619 97° East 500 575 35,000  Level Denver Center
Sat 08:04:48 PM 40.6175 -107.8878 98° East 501 577 35,000  Level Denver Center
Sat 08:05:50 PM 40.5981 -107.6822 97° East 504 580 35,000  Level Denver Center
Sat 08:06:51 PM 40.5839 -107.5375 97° East 502 578 35,000  Level Denver Center
Sat 08:07:53 PM 40.5636 -107.3325 97° East 504 580 35,000 -339 Level Denver Center
Sat 08:08:55 PM 40.5433 -107.1411 98° East 500 575 34,300 -1,161 Descending Denver Center
Sat 08:09:57 PM 40.5250 -106.9594 98° East 500 575 32,600 -1,597 Descending Denver Center
Sat 08:10:59 PM 40.5069 -106.7781 97° East 500 575 31,000 -1,610 Descending Denver Center
Sat 08:12:00 PM 40.4872 -106.5958 98° East 500 575 29,300 -1,756 Descending Denver Center
Sat 08:13:02 PM 40.4633 -106.3836 98° East 493 567 27,400 -1,544 Descending Denver Center
Sat 08:14:16 PM 40.4456 -106.2122 98° East 493 567 25,800 -1,985 Descending Denver Center
Sat 08:15:18 PM 40.4214 -105.9961 98° East 479 551 22,900 -2,565 Descending Denver Center
Sat 08:16:20 PM 40.4044 -105.8350 98° East 453 521 20,500 -1,951 Descending Denver Center
Sat 08:17:21 PM 40.3856 -105.6839 99° East 425 489 18,900 -1,511 Descending Denver Center
Sat 08:18:35 PM 40.3694 -105.5431 98° East 396 456 17,100 -838 Descending Denver Center
Sat 08:19:37 PM 40.3486 -105.3756 99° East 362 417 17,000 -532 Descending Denver Center
Sat 08:20:39 PM 40.3297 -105.2392 100° East 354 407 16,000 -1,403 Descending Denver Center
Sat 08:21:41 PM 40.3125 -105.1169 100° East 345 397 14,100 -1,366 Descending Denver Center
Sat 08:22:42 PM 40.2981 -105.0022 99° East 326 375 13,200 -1,220 Descending Denver Center
Sat 08:23:44 PM 40.2544 -104.9153 123° Southeast 280 322 11,600 -1,597 Descending Denver Center
Sat 08:24:46 PM 40.1889 -104.8594 147° Southeast 280 322 9,900 -1,268 Descending Denver Center
Sat 08:25:47 PM 40.1231 -104.8050 148° Southeast 280 322 9,000 -829 Descending Denver Center
Sat 08:26:49 PM 40.0542 -104.7453 146° Southeast 276 318 8,200 -1,059 Descending Denver Center
Sat 08:28:03 PM 39.9922 -104.6983 150° Southeast 260 299 6,600 -971 Descending Denver Center
Sat 08:29:05 PM 39.9333 -104.6864 171° South 167 192 6,000 -585 Descending Denver Center
Sat 08:30:06 PM 39.8869 -104.6872 181° South 158 182 5,400 -590 Descending Denver Center

Login

Don't have an account? Register now (free) for customized features, flight alerts, and more!